Terminal Aerodrome Forecast
Issued by NWS Shreveport, LA

Current Version | Previous Version | Text Only | Print | Product List | Glossary On
Versions: 1 2 3 4 5 6 7 8 9 10 11 12 13 14 15 16 17
000
FTUS44 KSHV 271152
TAFSHV
TAF
KSHV 271152Z 2712/2812 18010KT 4SM TSRA BR SCT035 OVC080CB
     FM271600 16013G22KT 4SM TSRA BR SCT035 OVC080CB
      TEMPO 2720/2724 16016G28KT 2SM TSRA BR OVC010CB
     FM280000 16013G22KT P6SM VCTS BKN015 OVC060CB
     FM280300 17008KT P6SM BKN015 OVC050=

USA.gov is the U.S. government's official web portal to all federal, state and local government web resources and services.